Latest Weather Observations for Katanning RS

IDW60801

Issued at 1:32 pm WST Friday 27 February 2015 (issued every 30 minutes, with the page automatically refreshed every 10 minutes)

About weather observations | Map of weather stations | Latest weather observations for WA | Other Formats
Station Details ID: 010916 Name: KATANNING Lat: -33.69 Lon: 117.61 Height: 320.0 m
Data from the previous 72 hours. | See also: Recent months at Katanning RS
Date/Time
WST
Temp
°C
App
Temp
°C
Dew
Point
Rel
Hum
%
Delta-T
°C
Wind Press
QNH
hPa
Press
MSL
hPa
Rain
since 9 am
mm
Dir
 
Spd
km/h
Gust
km/h
Spd
kts
Gust
kts
27/01:30pm 21.8 19.6 13.4 59 4.9 S 17 24 9 13 1010.0 1008.6 0.0
27/01:00pm 22.0 19.8 14.4 62 4.5 S 19 32 10 17 1010.2 1008.8 0.0
27/12:30pm 20.3 18.3 14.9 71 3.2 SSW 19 28 10 15 1010.4 1009.0 0.0
27/12:00pm 20.0 18.0 15.0 73 3.0 SSW 19 28 10 15 1010.3 1008.9 0.0
27/11:30am 20.9 18.5 14.5 67 3.8 SSW 20 30 11 16 1009.9 1008.5 0.0
27/11:00am 20.1 17.4 14.7 71 3.2 SSW 22 32 12 17 1010.0 1008.6 0.0
27/10:30am 21.0 18.6 15.3 70 3.4 SSW 22 30 12 16 1009.7 1008.3 0.0
27/10:00am 19.7 16.2 15.6 77 2.5 SSW 28 39 15 21 1009.3 1007.8 0.0
27/09:30am 20.6 17.7 16.0 75 2.8 SSW 26 41 14 22 1008.7 1007.3 0.0
27/09:00am 20.7 19.5 17.5 82 2.0 SSW 20 30 11 16 1008.3 1006.9 0.2
27/08:30am 19.8 18.6 17.0 84 1.7 SSW 19 28 10 15 1008.1 1006.7 0.2
27/08:00am 19.6 19.1 17.0 85 1.6 SSW 15 22 8 12 1007.7 1006.3 0.2
27/07:30am 19.8 20.1 17.0 84 1.7 S 11 17 6 9 1007.4 1006.0 0.2
27/07:00am 19.5 19.8 17.1 86 1.5 S 11 17 6 9 1007.0 1005.6 0.2
27/06:30am 19.4 19.8 17.2 87 1.4 S 11 17 6 9 1006.7 1005.3 0.2
27/06:00am 19.3 19.3 17.1 87 1.4 SSW 13 17 7 9 1006.5 1005.0 0.2
27/05:30am 19.5 19.8 17.1 86 1.5 S 11 17 6 9 1006.1 1004.6 0.2
27/05:00am 19.5 19.8 16.9 85 1.6 SSE 11 17 6 9 1005.7 1004.3 0.2
27/04:30am 19.4 19.9 16.6 84 1.7 S 9 13 5 7 1005.5 1004.1 0.2
27/04:00am 19.3 19.8 16.5 84 1.7 S 9 13 5 7 1005.5 1004.1 0.2
27/03:30am 19.9 20.4 16.5 81 2.1 SSE 9 13 5 7 1005.1 1003.7 0.2
27/03:00am 20.5 21.4 16.5 78 2.5 SSE 7 9 4 5 1005.2 1003.8 0.2
27/02:30am 21.0 22.2 16.8 77 2.6 SSE 6 7 3 4 1005.4 1004.0 0.2
27/02:00am 21.2 22.8 16.8 76 2.7 E 4 7 2 4 1005.5 1004.1 0.2
27/01:30am 21.3 22.3 16.9 76 2.7 ENE 7 11 4 6 1005.6 1004.2 0.2
27/01:00am 21.7 21.5 16.6 73 3.2 ENE 13 17 7 9 1006.0 1004.5 0.2
27/12:30am 21.9 21.6 16.4 71 3.4 ENE 13 19 7 10 1006.5 1005.0 0.2
27/12:00am 22.0 21.3 16.5 71 3.4 E 15 20 8 11 1006.7 1005.3 0.2
 
Date/Time
WST
Temp
°C
App
Temp
°C
Dew
Point
Rel
Hum
%
Delta-T
°C
Wind Press
QNH
hPa
Press
MSL
hPa
Rain
since 9 am
mm
Dir
 
Spd
km/h
Gust
km/h
Spd
kts
Gust
kts
26/11:30pm 21.9 21.2 16.4 71 3.4 E 15 22 8 12 1006.9 1005.5 0.2
26/11:00pm 22.1 21.8 16.4 70 3.5 E 13 19 7 10 1007.1 1005.7 0.2
26/10:30pm 22.4 21.7 16.4 69 3.7 ENE 15 19 8 10 1007.3 1005.9 0.2
26/10:00pm 22.5 21.8 16.5 69 3.7 ENE 15 19 8 10 1007.8 1006.4 0.2
26/09:30pm 22.8 23.0 16.8 69 3.7 E 11 15 6 8 1007.7 1006.3 0.2
26/09:00pm 22.7 22.8 17.4 72 3.3 SE 13 17 7 9 1007.6 1006.2 0.2
26/08:30pm 23.0 21.9 17.7 72 3.3 SE 20 28 11 15 1007.5 1006.1 0.2
26/08:00pm 23.8 23.5 17.3 67 4.1 ESE 15 22 8 12 1006.7 1005.3 0.2
26/07:30pm 24.0 24.3 18.0 69 3.8 ESE 13 17 7 9 1006.4 1004.9 0.2
26/07:00pm 24.2 24.6 18.2 69 3.8 ESE 13 17 7 9 1006.4 1004.9 0.2
26/06:30pm 24.5 24.5 18.2 68 4.0 SE 15 20 8 11 1006.5 1005.0 0.2
26/06:00pm 25.7 24.6 17.4 60 5.3 ESE 19 28 10 15 1006.3 1004.8 0.2
26/05:30pm 27.7 25.8 15.7 48 7.5 ESE 20 28 11 15 1006.1 1004.6 0.0
26/05:00pm 28.7 26.8 15.2 43 8.4 ESE 19 24 10 13 1006.1 1004.6 0.0
26/04:30pm 29.6 27.5 14.6 40 9.2 SE 19 28 10 15 1005.7 1004.3 0.0
26/04:00pm 30.5 28.5 15.0 39 9.6 ESE 19 33 10 18 1006.0 1004.5 0.0
26/03:30pm 31.1 29.0 15.1 38 10.0 SE 20 32 11 17 1006.0 1004.5 0.0
26/03:00pm 31.4 28.6 15.4 38 10.0 SE 24 32 13 17 1005.9 1004.4 0.0
26/02:30pm 31.3 30.0 14.9 37 10.2 E 15 35 8 19 1006.3 1004.8 0.0
26/02:00pm 31.0 29.8 15.0 38 10.0 ESE 15 22 8 12 1006.7 1005.3 0.0
26/01:30pm 30.4 29.6 14.1 37 10.0 SE 11 22 6 12 1007.3 1005.9 0.0
26/01:00pm 30.1 30.3 14.6 39 9.6 SE 7 17 4 9 1007.5 1006.1 0.0
26/12:30pm 30.5 30.6 15.4 40 9.4 S 9 17 5 9 1007.9 1006.5 0.0
26/12:00pm 29.2 29.5 15.0 42 8.8 E 7 15 4 8 1008.3 1006.9 0.0
26/11:30am 28.0 28.5 15.6 46 7.7 SE 7 17 4 9 1008.7 1007.3 0.0
26/11:00am 26.7 26.4 15.4 50 7.0 ENE 11 17 6 9 1009.5 1008.1 0.0
26/10:30am 26.1 25.3 15.2 51 6.7 NE 13 19 7 10 1009.8 1008.4 0.0
26/10:00am 24.8 23.7 15.4 56 5.8 ENE 15 20 8 11 1009.8 1008.4 0.0
26/09:30am 23.5 23.4 16.1 63 4.6 ENE 11 17 6 9 1010.3 1008.9 0.0
26/09:00am 22.0 22.6 15.8 68 3.8 E 7 13 4 7 1010.9 1009.5 0.0
26/08:30am 20.8 20.6 15.6 72 3.1 E 11 19 6 10 1010.8 1009.4 0.0
26/08:00am 19.6 19.2 16.1 80 2.1 E 13 19 7 10 1010.8 1009.4 0.0
26/07:30am 18.5 17.1 15.6 83 1.7 ESE 17 20 9 11 1010.7 1009.3 0.0
26/07:00am 18.2 16.7 15.3 83 1.7 ESE 17 20 9 11 1010.2 1008.8 0.0
26/06:30am 18.1 17.4 15.4 84 1.6 SE 13 20 7 11 1010.4 1009.0 0.0
26/06:00am 18.0 17.3 15.3 84 1.6 E 13 17 7 9 1009.9 1008.5 0.0
26/05:30am 17.9 17.5 15.2 84 1.6 E 11 17 6 9 1009.9 1008.5 0.0
26/05:00am 17.9 17.8 15.0 83 1.7 ESE 9 15 5 8 1010.1 1008.7 0.0
26/04:30am 17.9 17.4 15.0 83 1.7 ESE 11 19 6 10 1010.3 1008.9 0.0
26/04:00am 17.9 17.9 15.2 84 1.6 E 9 15 5 8 1010.4 1009.0 0.0
26/03:30am 17.6 16.3 14.9 84 1.6 E 15 24 8 13 1009.9 1008.5 0.0
26/03:00am 17.5 15.8 14.8 84 1.6 E 17 26 9 14 1009.6 1008.2 0.0
26/02:30am 17.4 15.3 14.7 84 1.6 ESE 19 28 10 15 1009.7 1008.3 0.0
26/02:00am 17.5 15.8 14.6 83 1.7 ESE 17 24 9 13 1009.7 1008.3 0.0
26/01:30am 17.6 15.5 14.7 83 1.7 SE 19 24 10 13 1010.4 1009.0 0.0
26/01:00am 17.8 16.8 14.7 82 1.8 ESE 13 19 7 10 1010.4 1009.0 0.0
26/12:30am 17.9 17.4 14.8 82 1.8 E 11 17 6 9 1011.0 1009.6 0.0
26/12:00am 17.9 16.2 14.8 82 1.8 E 17 24 9 13 1011.0 1009.6 0.0
 
Date/Time
WST
Temp
°C
App
Temp
°C
Dew
Point
Rel
Hum
%
Delta-T
°C
Wind Press
QNH
hPa
Press
MSL
hPa
Rain
since 9 am
mm
Dir
 
Spd
km/h
Gust
km/h
Spd
kts
Gust
kts
25/11:30pm 18.0 17.0 14.7 81 1.9 ESE 13 19 7 10 1011.5 1010.1 0.0
25/11:00pm 18.2 16.9 14.7 80 2.1 ESE 15 24 8 13 1011.7 1010.3 0.0
25/10:30pm 18.3 16.0 14.6 79 2.2 ESE 20 28 11 15 1011.9 1010.5 0.0
25/10:00pm 18.3 16.2 14.8 80 2.1 ESE 19 24 10 13 1011.9 1010.5 0.0
25/09:30pm 18.5 15.9 15.0 80 2.1 SE 22 32 12 17 1011.5 1010.1 0.0
25/09:00pm 18.9 16.0 15.2 79 2.2 ESE 24 32 13 17 1011.7 1010.3 0.0
25/08:30pm 19.4 17.0 15.3 77 2.4 ESE 22 32 12 17 1011.7 1010.3 0.0
25/08:00pm 20.2 17.8 15.4 74 2.9 E 22 30 12 16 1012.2 1010.9 0.0
25/07:30pm 21.2 18.4 15.3 69 3.6 E 24 33 13 18 1011.6 1010.2 0.0
25/07:00pm 22.2 20.2 15.5 66 4.1 E 20 32 11 17 1011.4 1010.0 0.0
25/06:30pm 24.2 20.8 15.9 59 5.1 ESE 28 37 15 20 1010.1 1008.7 0.0
25/06:00pm 26.9 23.5 15.9 51 6.8 ESE 28 37 15 20 1009.3 1007.8 0.0
25/05:30pm 28.6 25.5 15.5 45 8.1 SE 26 37 14 20 1008.9 1007.5 0.0
25/05:00pm 30.5 27.3 15.4 40 9.4 SE 26 35 14 19 1008.6 1007.2 0.0
25/04:30pm 31.3 27.6 14.9 37 10.2 SE 28 35 15 19 1008.5 1007.1 0.0
25/04:00pm 32.4 28.9 14.5 33 11.1 SSE 26 33 14 18 1008.2 1006.8 0.0
25/03:30pm 33.2 30.2 13.8 31 11.9 SSE 22 30 12 16 1008.3 1006.9 0.0
25/03:00pm 35.4 35.0 14.1 28 13.3 W 9 24 5 13 1008.5 1007.1 0.0
25/02:30pm 34.5 34.4 13.9 29 12.8 S 7 20 4 11 1008.7 1007.3 0.0
25/02:00pm 33.4 33.2 13.5 30 12.2 SW 7 19 4 10 1009.0 1007.6 0.0
25/01:30pm 33.4 32.4 14.5 32 11.8 ESE 13 24 7 13 1009.5 1008.1 0.0
25/01:00pm 32.7 33.1 14.8 34 11.2 SSE 6 13 3 7 1010.0 1008.6 0.0
25/12:30pm 31.9 32.2 15.0 36 10.5 SE 7 17 4 9 1010.0 1008.6 0.0
25/12:00pm 29.9 30.4 15.6 42 8.9 SSE 7 15 4 8 1010.4 1009.0 0.0
25/11:30am 29.3 29.5 16.8 47 7.9 SE 11 20 6 11 1010.9 1009.5 0.0
25/11:00am 27.2 26.5 16.5 52 6.7 SE 15 24 8 13 1011.3 1009.9 0.0
25/10:30am 27.7 26.8 16.9 51 6.8 SSE 17 24 9 13 1011.6 1010.2 0.0
25/10:00am 25.4 24.3 16.3 57 5.7 S 17 24 9 13 1011.6 1010.2 0.0
25/09:30am 24.6 23.6 16.6 61 5.0 S 17 24 9 13 1011.6 1010.2 0.0
25/09:00am 23.8 23.3 16.8 65 4.4 S 15 20 8 11 1011.9 1010.5 0.2
25/08:30am 22.0 20.5 16.3 70 3.5 S 19 22 10 12 1011.8 1010.4 0.2
25/08:00am 21.0 19.5 16.2 74 2.9 SSW 19 24 10 13 1011.5 1010.1 0.2
25/07:30am 20.8 19.6 16.2 75 2.8 SSW 17 28 9 15 1011.4 1010.0 0.2
25/07:00am 20.3 20.3 15.3 73 3.0 SE 9 15 5 8 1010.7 1009.3 0.2
25/06:30am 19.6 19.1 15.0 75 2.7 NE 11 17 6 9 1010.5 1009.1 0.2
25/06:00am 18.9 18.9 14.2 74 2.8 E 7 11 4 6 1010.0 1008.6 0.2
25/05:30am 19.0 19.1 13.8 72 3.0 SE 6 6 3 3 1009.5 1008.1 0.2
25/05:00am 19.6 19.4 13.5 68 3.5 S 7 15 4 8 1009.4 1008.0 0.2
25/04:30am 20.3 18.9 13.3 64 4.1 S 13 17 7 9 1009.4 1008.0 0.2
25/04:00am 21.2 20.1 14.4 65 4.0 SSW 13 19 7 10 1009.4 1008.0 0.2
25/03:30am 22.2 22.5 16.0 68 3.8 SSW 9 11 5 6 1009.4 1008.0 0.2
25/03:00am 21.7 22.3 15.8 69 3.6 SSW 7 9 4 5 1009.3 1007.8 0.2
25/02:30am 23.6 25.8 16.4 64 4.5 CALM 0 2 0 1 1009.0 1007.6 0.2
25/02:00am 24.1 25.0 16.1 61 4.9 NE 6 7 3 4 1009.0 1007.6 0.2
25/01:30am 24.4 25.5 15.6 58 5.4 ENE 4 9 2 5 1009.0 1007.6 0.2
25/01:00am 25.4 25.6 15.7 55 6.0 N 9 13 5 7 1009.4 1008.0 0.2
25/12:30am 25.0 25.5 15.6 56 5.8 N 7 11 4 6 1009.2 1007.7 0.2
25/12:00am 24.8 25.9 15.7 57 5.6 ENE 4 6 2 3 1009.2 1007.7 0.2
 
Date/Time
WST
Temp
°C
App
Temp
°C
Dew
Point
Rel
Hum
%
Delta-T
°C
Wind Press
QNH
hPa
Press
MSL
hPa
Rain
since 9 am
mm
Dir
 
Spd
km/h
Gust
km/h
Spd
kts
Gust
kts
24/11:30pm 24.6 26.4 15.5 57 5.6 CALM 0 0 0 0 1009.6 1008.2 0.2
24/11:00pm 25.2 25.4 15.8 56 5.8 NNE 9 13 5 7 1010.0 1008.6 0.2
24/10:30pm 25.4 25.5 15.4 54 6.1 NNE 9 13 5 7 1010.4 1009.0 0.2
24/10:00pm 25.8 26.3 15.5 53 6.3 S 7 15 4 8 1009.9 1008.5 0.2
24/09:30pm 25.9 25.2 15.3 52 6.5 SSW 13 19 7 10 1009.8 1008.4 0.2
24/09:00pm 26.9 25.9 14.6 46 7.5 S 13 20 7 11 1009.8 1008.4 0.2
24/08:30pm 27.7 26.1 14.0 43 8.3 SSW 15 22 8 12 1009.9 1008.5 0.2
24/08:00pm 27.3 26.6 14.3 45 7.9 N 11 15 6 8 1009.4 1008.0 0.2
24/07:30pm 27.9 26.3 14.9 45 8.0 N 17 26 9 14 1009.3 1007.8 0.2
24/07:00pm 27.1 22.7 15.1 47 7.4 N 32 46 17 25 1009.0 1007.6 0.2
24/06:53pm 29.9 23.9 13.2 36 10.1 NNW 37 50 20 27 1008.9 1007.5 0.0
24/06:39pm 35.1 30.6 11.5 24 14.1 WNW 26 50 14 27 1008.4 1007.0 0.0
24/06:30pm 35.6 30.5 11.9 24 14.3 W 30 43 16 23 1007.6 1006.2 0.0
24/06:00pm 37.1 33.7 11.1 21 15.6 W 20 26 11 14 1006.9 1005.5 0.0
24/05:30pm 38.5 35.2 10.8 19 16.7 W 19 33 10 18 1006.6 1005.1 0.0
24/05:00pm 38.0 34.9 10.4 19 16.5 WNW 17 24 9 13 1006.6 1005.1 0.0
24/04:30pm 38.1 35.1 10.5 19 16.5 WNW 17 33 9 18 1006.8 1005.4 0.0
24/04:00pm 38.5 34.9 10.0 18 17.0 WNW 19 30 10 16 1007.0 1005.6 0.0
24/03:30pm 38.9 35.4 10.3 18 17.1 WNW 19 33 10 18 1007.1 1005.7 0.0
24/03:00pm 38.8 34.7 10.2 18 17.1 NW 22 35 12 19 1007.5 1006.1 0.0
24/02:30pm 38.6 34.9 10.0 18 17.0 WNW 20 35 11 19 1007.7 1006.3 0.0
24/02:00pm 38.6 33.7 10.0 18 17.0 NW 26 37 14 20 1008.1 1006.7 0.0

Other Formats:

Comma delimited format used in spreadsheet applications
http://www.bom.gov.au/fwo/IDW60801/IDW60801.94641.axf

JavaScript Object Notation format (JSON) in row-major order
http://www.bom.gov.au/fwo/IDW60801/IDW60801.94641.json